createdAt,value
2022-12-16T00:00:06.757Z,16.27
2022-12-16T00:01:39.761Z,15.85
2022-12-16T00:03:11.617Z,15.88
2022-12-16T00:04:44.335Z,16.48
2022-12-16T00:06:18.622Z,15.90
2022-12-16T00:07:51.311Z,16.98
2022-12-16T00:09:24.506Z,15.52
2022-12-16T00:10:59.036Z,16.15
2022-12-16T00:12:31.730Z,15.80
2022-12-16T00:14:05.495Z,15.48
2022-12-16T00:15:38.749Z,16.25
2022-12-16T00:17:11.445Z,16.73
2022-12-16T00:18:44.569Z,17.55
2022-12-16T00:20:17.359Z,16.88
2022-12-16T00:21:51.416Z,16.88
2022-12-16T00:23:24.481Z,17.40
2022-12-16T00:24:56.254Z,16.13
2022-12-16T00:26:29.710Z,15.93
2022-12-16T00:28:02.411Z,15.45
2022-12-16T00:29:35.185Z,15.68
2022-12-16T00:31:08.326Z,15.82
2022-12-16T00:32:41.033Z,14.90
2022-12-16T00:34:13.764Z,16.35
2022-12-16T00:35:46.947Z,15.52
2022-12-16T00:37:21.273Z,16.20
2022-12-16T00:38:53.262Z,16.00
2022-12-16T00:40:27.020Z,16.25
2022-12-16T00:41:59.729Z,15.40
2022-12-16T00:43:32.869Z,14.95
2022-12-16T00:45:06.875Z,15.15
2022-12-16T00:46:40.784Z,13.88
2022-12-16T00:48:13.538Z,15.60
2022-12-16T00:49:47.229Z,15.40
2022-12-16T00:51:19.973Z,13.93
2022-12-16T00:52:54.146Z,14.98
2022-12-16T00:54:27.559Z,14.05
2022-12-16T00:56:04.609Z,14.68
2022-12-16T00:57:37.452Z,13.90
2022-12-16T00:59:10.160Z,14.25
2022-12-16T01:00:42.923Z,14.13
2022-12-16T01:02:15.806Z,13.60
2022-12-16T01:03:48.678Z,14.02
2022-12-16T01:05:26.905Z,13.38
2022-12-16T01:06:59.742Z,13.95
2022-12-16T01:08:33.818Z,13.57
2022-12-16T01:10:08.338Z,14.15
2022-12-16T01:11:41.249Z,13.63
2022-12-16T01:13:13.975Z,14.45
2022-12-16T01:14:46.688Z,13.15
2022-12-16T01:16:19.665Z,14.20
2022-12-16T01:17:52.430Z,13.57
2022-12-16T01:19:24.295Z,12.57
2022-12-16T01:21:03.604Z,12.70
2022-12-16T01:22:36.867Z,13.00
2022-12-16T01:24:11.676Z,12.90
2022-12-16T01:25:44.727Z,12.65
2022-12-16T01:27:18.190Z,12.38
2022-12-16T01:28:51.046Z,12.25
2022-12-16T01:30:25.262Z,12.25
2022-12-16T01:31:58.064Z,12.50
2022-12-16T01:33:32.420Z,12.43
2022-12-16T01:35:18.060Z,11.80
2022-12-16T01:36:56.271Z,12.55
2022-12-16T01:38:29.084Z,11.77
2022-12-16T01:40:03.552Z,12.43
2022-12-16T01:41:36.249Z,11.73
2022-12-16T01:43:12.618Z,12.98
2022-12-16T01:44:48.270Z,13.82
2022-12-16T01:46:24.290Z,12.20
2022-12-16T01:47:59.898Z,12.35
2022-12-16T01:49:41.855Z,10.68
2022-12-16T01:51:18.752Z,12.85
2022-12-16T01:52:55.886Z,12.05
2022-12-16T01:54:32.196Z,11.65
2022-12-16T01:56:07.449Z,12.20
2022-12-16T01:57:45.595Z,12.57
2022-12-16T01:59:20.112Z,12.05
2022-12-16T02:00:52.157Z,11.57
2022-12-16T02:02:28.027Z,11.75
2022-12-16T02:04:03.836Z,11.70
2022-12-16T02:05:38.332Z,11.95
2022-12-16T02:07:11.038Z,12.00
2022-12-16T02:08:43.745Z,11.77
2022-12-16T02:10:15.696Z,11.70
2022-12-16T02:12:07.264Z,12.77
2022-12-16T02:13:59.276Z,11.90
2022-12-16T02:15:41.284Z,11.80
2022-12-16T02:17:19.786Z,12.02
2022-12-16T02:19:00.495Z,11.75
2022-12-16T02:21:11.083Z,11.90
2022-12-16T02:23:00.427Z,12.23
2022-12-16T02:25:02.970Z,11.73
2022-12-16T02:27:02.263Z,12.02
2022-12-16T02:28:51.581Z,12.30
2022-12-16T02:31:00.319Z,12.35
2022-12-16T02:32:41.586Z,13.18
2022-12-16T02:34:22.529Z,12.80
2022-12-16T02:35:59.958Z,12.38
2022-12-16T02:37:41.576Z,13.07
2022-12-16T02:39:17.794Z,12.75
2022-12-16T02:40:56.450Z,12.30
2022-12-16T02:42:32.431Z,12.32
2022-12-16T02:44:07.307Z,11.55
2022-12-16T02:45:42.067Z,12.10
2022-12-16T02:47:14.825Z,12.18
2022-12-16T02:48:47.520Z,11.95
2022-12-16T02:50:22.903Z,12.73
2022-12-16T02:51:55.734Z,12.15
2022-12-16T02:53:29.779Z,13.60
2022-12-16T02:55:05.715Z,13.02
2022-12-16T02:56:50.640Z,13.75
2022-12-16T02:58:28.656Z,13.35
2022-12-16T03:00:05.055Z,13.60
2022-12-16T03:01:47.659Z,12.57
2022-12-16T03:03:24.909Z,13.27
2022-12-16T03:05:02.428Z,12.55
2022-12-16T03:06:37.815Z,13.13
2022-12-16T03:08:13.723Z,12.98
2022-12-16T03:09:48.442Z,13.05
2022-12-16T03:11:21.813Z,13.63
2022-12-16T03:12:56.499Z,12.70
2022-12-16T03:14:32.927Z,12.95
2022-12-16T03:16:07.920Z,14.30
2022-12-16T03:17:43.524Z,13.52
2022-12-16T03:19:16.224Z,13.70
2022-12-16T03:20:55.477Z,14.23
2022-12-16T03:22:30.334Z,14.75
2022-12-16T03:24:07.001Z,13.70
2022-12-16T03:25:44.222Z,12.90
2022-12-16T03:27:22.253Z,13.75
2022-12-16T03:29:00.123Z,13.55
2022-12-16T03:30:36.431Z,12.95
2022-12-16T03:32:12.799Z,12.95
2022-12-16T03:33:50.887Z,13.65
2022-12-16T03:35:28.489Z,14.77
2022-12-16T03:37:03.872Z,14.43
2022-12-16T03:38:38.564Z,13.98
2022-12-16T03:40:13.684Z,13.68
2022-12-16T03:41:50.461Z,13.75
2022-12-16T03:43:24.167Z,12.70
2022-12-16T03:44:57.705Z,13.68
2022-12-16T03:46:30.545Z,11.55
2022-12-16T03:48:03.327Z,11.18
2022-12-16T03:49:37.542Z,10.77
2022-12-16T03:51:10.248Z,11.73
2022-12-16T03:52:42.931Z,10.48
2022-12-16T03:54:15.663Z,10.77
2022-12-16T03:55:47.440Z,11.57
2022-12-16T03:57:20.208Z,11.55
2022-12-16T03:58:52.919Z,11.00
2022-12-16T04:00:26.189Z,11.70
2022-12-16T04:01:59.952Z,10.80
2022-12-16T04:03:33.212Z,11.77
2022-12-16T04:05:08.091Z,12.48
2022-12-16T04:06:40.892Z,11.25
2022-12-16T04:08:12.629Z,13.18
2022-12-16T04:09:45.398Z,13.55
2022-12-16T04:11:35.533Z,13.73
2022-12-16T04:13:27.420Z,13.80
2022-12-16T04:15:17.830Z,12.35
2022-12-16T04:17:08.106Z,13.57
2022-12-16T04:18:59.519Z,13.40
2022-12-16T04:20:55.506Z,12.88
2022-12-16T04:22:48.458Z,12.25
2022-12-16T04:24:24.150Z,12.15
2022-12-16T04:25:57.001Z,12.85
2022-12-16T04:27:29.353Z,13.02
2022-12-16T04:29:02.058Z,12.70
2022-12-16T04:30:34.704Z,12.20
2022-12-16T04:32:07.520Z,12.38
2022-12-16T04:33:58.413Z,12.55
2022-12-16T04:35:48.923Z,12.15
2022-12-16T04:37:40.592Z,12.32
2022-12-16T04:39:30.933Z,11.05
2022-12-16T04:41:21.515Z,11.90
2022-12-16T04:43:12.019Z,12.52
2022-12-16T04:45:02.612Z,11.68
2022-12-16T04:46:53.114Z,11.30
2022-12-16T04:48:43.523Z,11.95
2022-12-16T04:50:33.687Z,11.65
2022-12-16T04:52:24.459Z,11.35
2022-12-16T04:54:16.276Z,13.70
2022-12-16T04:56:06.679Z,11.45
2022-12-16T04:57:57.177Z,11.07
2022-12-16T04:59:47.602Z,10.88
2022-12-16T05:01:38.190Z,10.65
2022-12-16T05:03:28.761Z,10.88
2022-12-16T05:05:19.241Z,10.60
2022-12-16T05:07:09.819Z,11.00
2022-12-16T05:09:00.201Z,10.00
2022-12-16T05:10:51.852Z,9.82
2022-12-16T05:12:42.232Z,9.40
2022-12-16T05:14:32.527Z,9.88
2022-12-16T05:16:23.296Z,9.77
2022-12-16T05:18:13.666Z,10.48
2022-12-16T05:20:03.286Z,9.85
2022-12-16T05:21:53.785Z,9.43
2022-12-16T05:23:44.262Z,10.30
2022-12-16T05:25:34.619Z,10.30
2022-12-16T05:27:26.391Z,10.05
2022-12-16T05:29:16.777Z,10.75
2022-12-16T05:31:07.341Z,10.63
2022-12-16T05:33:06.082Z,10.65
2022-12-16T05:34:56.608Z,10.15
2022-12-16T05:36:47.051Z,10.40
2022-12-16T05:38:36.663Z,10.88
2022-12-16T05:40:28.762Z,10.98
2022-12-16T05:42:19.227Z,10.95
2022-12-16T05:44:10.854Z,10.52
2022-12-16T05:46:01.141Z,11.02
2022-12-16T05:47:51.429Z,10.82
2022-12-16T05:49:56.308Z,10.27
2022-12-16T05:51:46.379Z,10.65
2022-12-16T05:53:36.599Z,10.80
2022-12-16T05:55:33.578Z,10.23
2022-12-16T05:57:24.898Z,10.50
2022-12-16T05:59:16.588Z,10.95
2022-12-16T06:01:06.893Z,10.80
2022-12-16T06:02:57.304Z,9.68
2022-12-16T06:04:47.403Z,9.57
2022-12-16T06:06:37.807Z,9.40
2022-12-16T06:08:42.921Z,9.77
2022-12-16T06:10:33.554Z,9.43
2022-12-16T06:12:24.734Z,10.60
2022-12-16T06:14:16.512Z,10.13
2022-12-16T06:16:09.043Z,9.50
2022-12-16T06:18:00.766Z,10.48
2022-12-16T06:19:51.264Z,10.60
2022-12-16T06:21:42.247Z,9.45
2022-12-16T06:23:32.916Z,8.68
2022-12-16T06:25:38.655Z,10.38
2022-12-16T06:27:28.892Z,9.68
2022-12-16T06:29:20.720Z,10.27
2022-12-16T06:31:16.768Z,10.40
2022-12-16T06:33:06.887Z,9.45
2022-12-16T06:35:02.547Z,9.50
2022-12-16T06:36:52.714Z,10.05
2022-12-16T06:38:43.242Z,9.70
2022-12-16T06:40:33.753Z,9.52
2022-12-16T06:42:24.103Z,9.82
2022-12-16T06:44:14.480Z,10.45
2022-12-16T06:46:06.393Z,9.68
2022-12-16T06:47:57.431Z,9.75
2022-12-16T06:49:47.012Z,9.77
2022-12-16T06:51:37.536Z,9.88
2022-12-16T06:53:27.915Z,10.05
2022-12-16T06:55:18.394Z,9.65
2022-12-16T06:57:08.713Z,9.73
2022-12-16T06:58:59.030Z,10.68
2022-12-16T07:00:49.492Z,9.88
2022-12-16T07:02:41.401Z,9.90
2022-12-16T07:04:31.797Z,10.00
2022-12-16T07:06:22.231Z,9.88
2022-12-16T07:08:12.714Z,9.85
2022-12-16T07:10:03.054Z,9.57
2022-12-16T07:11:53.524Z,9.60
2022-12-16T07:13:43.855Z,9.75
2022-12-16T07:15:34.121Z,9.30
2022-12-16T07:17:24.393Z,9.38
2022-12-16T07:19:16.116Z,10.73
2022-12-16T07:21:06.466Z,11.73
2022-12-16T07:23:08.364Z,13.40
2022-12-16T07:25:02.220Z,15.02
2022-12-16T07:26:52.643Z,12.98
2022-12-16T07:28:43.302Z,10.35
2022-12-16T07:30:33.907Z,10.10
2022-12-16T07:32:24.400Z,10.02
2022-12-16T07:34:16.306Z,10.32
2022-12-16T07:36:06.869Z,10.20
2022-12-16T07:37:57.757Z,10.45
2022-12-16T07:39:59.558Z,11.35
2022-12-16T07:41:49.750Z,13.38
2022-12-16T07:43:40.107Z,14.18
2022-12-16T07:45:30.499Z,15.60
2022-12-16T07:47:26.143Z,22.70
2022-12-16T07:49:17.752Z,29.92
2022-12-16T07:51:08.426Z,41.05
2022-12-16T07:52:59.371Z,39.72
2022-12-16T07:54:49.815Z,41.58
2022-12-16T07:56:41.547Z,33.10
2022-12-16T07:58:31.919Z,22.23
2022-12-16T08:00:23.231Z,15.98
2022-12-16T08:02:13.828Z,13.18
2022-12-16T08:04:04.255Z,12.35
2022-12-16T08:05:56.265Z,11.38
2022-12-16T08:07:46.523Z,10.55
2022-12-16T08:09:37.151Z,9.95
2022-12-16T08:11:27.492Z,10.20
2022-12-16T08:13:25.199Z,10.05
2022-12-16T08:15:15.916Z,10.85
2022-12-16T08:17:06.439Z,11.43
2022-12-16T08:18:56.534Z,11.07
2022-12-16T08:20:52.229Z,10.95
2022-12-16T08:22:46.818Z,11.40
2022-12-16T08:24:37.115Z,9.85
2022-12-16T08:26:27.476Z,10.27
2022-12-16T08:28:17.888Z,10.05
2022-12-16T08:30:08.284Z,10.00
2022-12-16T08:31:58.760Z,9.88
2022-12-16T08:34:03.714Z,10.13
2022-12-16T08:35:54.203Z,9.25
2022-12-16T08:37:44.882Z,9.55
2022-12-16T08:39:36.711Z,10.25
2022-12-16T08:41:27.192Z,10.68
2022-12-16T08:43:17.667Z,10.63
2022-12-16T08:45:08.030Z,10.50
2022-12-16T08:46:59.378Z,9.93
2022-12-16T08:48:49.838Z,10.40
2022-12-16T08:50:40.204Z,10.77
2022-12-16T08:52:30.575Z,10.00
2022-12-16T08:54:21.038Z,10.30
2022-12-16T08:56:12.720Z,9.70
2022-12-16T08:58:11.678Z,10.63
2022-12-16T09:00:02.100Z,10.07
2022-12-16T09:01:52.541Z,10.88
2022-12-16T09:03:45.680Z,10.40
2022-12-16T09:05:36.127Z,9.82
2022-12-16T09:07:26.563Z,10.65
2022-12-16T09:09:16.939Z,10.80
2022-12-16T09:11:07.867Z,10.00
2022-12-16T09:12:59.588Z,10.00
2022-12-16T09:14:50.092Z,10.68
2022-12-16T09:16:41.434Z,10.45
2022-12-16T09:18:31.531Z,11.35
2022-12-16T09:20:33.810Z,11.55
2022-12-16T09:22:35.927Z,11.65
2022-12-16T09:24:26.484Z,11.45
2022-12-16T09:26:13.268Z,11.15
2022-12-16T09:28:08.051Z,11.18
2022-12-16T09:29:59.246Z,11.05
2022-12-16T09:31:49.594Z,10.38
2022-12-16T09:33:40.091Z,9.80
2022-12-16T09:35:31.077Z,10.55
2022-12-16T09:37:21.783Z,9.48
2022-12-16T09:39:12.251Z,9.45
2022-12-16T09:41:02.781Z,9.30
2022-12-16T09:43:03.713Z,8.93
2022-12-16T09:45:07.885Z,9.88
2022-12-16T09:47:08.501Z,8.75
2022-12-16T09:49:08.049Z,10.05
2022-12-16T09:51:01.479Z,10.55
2022-12-16T09:53:06.340Z,10.98
2022-12-16T09:55:00.598Z,10.77
2022-12-16T09:56:55.176Z,10.75
2022-12-16T09:58:49.202Z,10.45
2022-12-16T10:00:42.981Z,10.70
2022-12-16T10:02:36.069Z,10.82
2022-12-16T10:04:26.660Z,10.13
2022-12-16T10:06:25.747Z,11.27
2022-12-16T10:08:23.272Z,10.50
2022-12-16T10:10:20.253Z,10.70
2022-12-16T10:12:17.386Z,11.27
2022-12-16T10:14:19.311Z,11.65
2022-12-16T10:16:19.725Z,11.90
2022-12-16T10:18:10.181Z,10.93
2022-12-16T10:20:10.079Z,10.77
2022-12-16T10:22:10.586Z,10.73
2022-12-16T10:24:09.572Z,12.95
2022-12-16T10:26:04.151Z,11.25
2022-12-16T10:28:04.776Z,12.30
2022-12-16T10:29:58.791Z,10.88
2022-12-16T10:31:51.786Z,10.35
2022-12-16T10:33:46.445Z,11.02
2022-12-16T10:35:41.288Z,11.05
2022-12-16T10:37:37.139Z,10.73
2022-12-16T10:39:40.621Z,10.68
2022-12-16T10:41:32.094Z,10.60
2022-12-16T10:43:28.920Z,10.68
2022-12-16T10:45:21.334Z,10.55
2022-12-16T10:47:13.126Z,10.88
2022-12-16T10:49:03.790Z,10.55
2022-12-16T10:50:54.108Z,10.80
2022-12-16T10:52:44.982Z,10.70
2022-12-16T10:54:51.348Z,10.73
2022-12-16T10:56:55.755Z,9.85
2022-12-16T10:58:54.960Z,10.55
2022-12-16T11:00:59.095Z,9.60
2022-12-16T11:02:51.021Z,10.80
2022-12-16T11:04:52.327Z,10.13
2022-12-16T11:06:55.306Z,10.07
2022-12-16T11:08:47.205Z,9.88
2022-12-16T11:10:51.305Z,10.25
2022-12-16T11:12:44.408Z,11.75
2022-12-16T11:14:50.258Z,12.73
2022-12-16T11:16:51.146Z,13.82
2022-12-16T11:18:42.940Z,15.18
2022-12-16T11:20:36.857Z,15.65
2022-12-16T11:22:33.881Z,14.63
2022-12-16T11:24:32.872Z,12.68
2022-12-16T11:26:37.504Z,12.80
2022-12-16T11:28:31.934Z,13.57
2022-12-16T11:30:35.441Z,11.90
2022-12-16T11:32:38.425Z,11.43
2022-12-16T11:34:26.520Z,11.35
2022-12-16T11:36:28.610Z,11.35
2022-12-16T11:38:20.009Z,11.50
2022-12-16T11:40:10.440Z,11.48
2022-12-16T11:42:03.275Z,12.05
2022-12-16T11:43:56.160Z,12.60
2022-12-16T11:45:46.662Z,12.98
2022-12-16T11:47:49.214Z,13.20
2022-12-16T11:49:46.600Z,12.23
2022-12-16T11:51:39.636Z,11.60
2022-12-16T11:53:43.620Z,12.18
2022-12-16T11:56:14.154Z,12.05
2022-12-16T11:58:10.697Z,12.15
2022-12-16T12:00:07.877Z,12.00
2022-12-16T12:02:05.008Z,11.48
2022-12-16T12:04:01.975Z,12.57
2022-12-16T12:05:59.558Z,17.40
2022-12-16T12:07:56.974Z,13.10
2022-12-16T12:09:47.502Z,11.93
2022-12-16T12:11:45.504Z,12.25
2022-12-16T12:13:51.064Z,12.63
2022-12-16T12:15:52.604Z,11.77
2022-12-16T12:17:57.478Z,12.48
2022-12-16T12:19:55.727Z,13.18
2022-12-16T12:22:00.803Z,14.18
2022-12-16T12:24:02.346Z,13.23
2022-12-16T12:26:02.727Z,13.07
2022-12-16T12:28:00.655Z,12.75
2022-12-16T12:29:57.422Z,13.35
2022-12-16T12:32:01.539Z,12.70
2022-12-16T12:34:01.047Z,11.48
2022-12-16T12:36:12.930Z,11.35
2022-12-16T12:38:11.697Z,10.73
2022-12-16T12:40:05.511Z,10.48
2022-12-16T12:42:19.811Z,11.75
2022-12-16T12:44:19.603Z,12.02
2022-12-16T12:46:23.711Z,11.43
2022-12-16T12:48:21.727Z,12.55
2022-12-16T12:50:21.527Z,12.13
2022-12-16T12:52:19.157Z,12.23
2022-12-16T12:54:21.708Z,12.02
2022-12-16T12:56:22.639Z,12.43
2022-12-16T12:58:15.499Z,12.18
2022-12-16T13:00:11.889Z,11.20
2022-12-16T13:02:04.469Z,11.45
2022-12-16T13:03:58.358Z,12.10
2022-12-16T13:05:52.168Z,12.10
2022-12-16T13:07:43.418Z,11.90
2022-12-16T13:09:48.116Z,11.82
2022-12-16T13:11:38.459Z,11.50
2022-12-16T13:13:47.346Z,10.90
2022-12-16T13:15:51.975Z,12.15
2022-12-16T13:17:42.317Z,10.77
2022-12-16T13:20:03.409Z,11.23
2022-12-16T13:22:04.570Z,10.85
2022-12-16T13:23:56.467Z,10.82
2022-12-16T13:26:09.131Z,9.95
2022-12-16T13:28:13.185Z,8.30
2022-12-16T13:30:20.368Z,8.13
2022-12-16T13:32:25.049Z,7.82
2022-12-16T13:34:22.312Z,7.82
2022-12-16T13:36:14.234Z,7.43
2022-12-16T13:38:10.986Z,7.60
2022-12-16T13:40:14.710Z,7.45
2022-12-16T13:42:10.074Z,7.50
2022-12-16T13:44:04.752Z,7.00
2022-12-16T13:45:58.307Z,7.65
2022-12-16T13:47:53.407Z,7.72
2022-12-16T13:50:00.612Z,7.32
2022-12-16T13:52:17.238Z,7.03
2022-12-16T13:54:11.894Z,7.03
2022-12-16T13:56:13.271Z,6.93
2022-12-16T13:58:06.619Z,7.40
2022-12-16T13:59:59.383Z,7.40
2022-12-16T14:01:56.395Z,7.20
2022-12-16T14:03:59.668Z,7.10
2022-12-16T14:05:55.065Z,7.38
2022-12-16T14:07:46.661Z,7.05
2022-12-16T14:09:46.605Z,7.07
2022-12-16T14:11:41.923Z,8.90
2022-12-16T14:13:40.587Z,11.20
2022-12-16T14:15:40.534Z,41.67
2022-12-16T14:17:44.488Z,32.88
2022-12-16T14:19:47.074Z,25.00
2022-12-16T14:21:44.148Z,15.15
2022-12-16T14:23:56.420Z,13.45
2022-12-16T14:25:48.194Z,12.80
2022-12-16T14:27:40.046Z,11.68
2022-12-16T14:29:38.723Z,11.50
2022-12-16T14:31:34.324Z,12.35
2022-12-16T14:33:41.880Z,12.80
2022-12-16T14:35:34.050Z,12.40
2022-12-16T14:37:30.800Z,12.68
2022-12-16T14:39:21.103Z,13.07
2022-12-16T14:41:11.523Z,14.65
2022-12-16T14:43:02.438Z,28.63
2022-12-16T14:44:56.186Z,26.50
2022-12-16T14:46:48.313Z,29.17
2022-12-16T14:48:49.559Z,25.95
2022-12-16T14:50:44.486Z,20.00
2022-12-16T14:52:39.428Z,20.33
2022-12-16T14:54:45.122Z,16.58
2022-12-16T14:56:38.034Z,16.40
2022-12-16T14:58:30.343Z,17.25
2022-12-16T15:00:30.397Z,16.10
2022-12-16T15:02:35.858Z,15.70
2022-12-16T15:04:35.020Z,15.45
2022-12-16T15:06:33.034Z,15.75
2022-12-16T15:08:24.486Z,16.02
2022-12-16T15:10:15.609Z,16.48
2022-12-16T15:12:08.547Z,16.00
2022-12-16T15:14:03.712Z,15.45
2022-12-16T15:16:00.253Z,15.02
2022-12-16T15:18:00.355Z,12.95
2022-12-16T15:20:03.359Z,12.07
2022-12-16T15:21:54.716Z,10.73
2022-12-16T15:23:49.643Z,11.00
2022-12-16T15:25:42.518Z,10.18
2022-12-16T15:27:41.528Z,8.55
2022-12-16T15:29:50.863Z,8.15
2022-12-16T15:31:46.092Z,8.13
2022-12-16T15:33:38.628Z,7.60
2022-12-16T15:35:29.199Z,7.30
2022-12-16T15:37:20.248Z,7.40
2022-12-16T15:39:15.879Z,7.68
2022-12-16T15:41:09.855Z,7.20
2022-12-16T15:43:00.774Z,6.82
2022-12-16T15:44:51.224Z,7.18
2022-12-16T15:46:56.395Z,7.20
2022-12-16T15:48:49.536Z,7.03
2022-12-16T15:50:41.946Z,6.90
2022-12-16T15:52:47.979Z,6.60
2022-12-16T15:54:42.970Z,7.10
2022-12-16T15:56:38.247Z,7.80
2022-12-16T15:58:33.101Z,7.55
2022-12-16T16:00:39.121Z,7.55
2022-12-16T16:02:37.916Z,7.65
2022-12-16T16:04:37.739Z,7.60
2022-12-16T16:06:36.778Z,7.47
2022-12-16T16:08:29.626Z,7.30
2022-12-16T16:10:32.694Z,7.20
2022-12-16T16:12:23.086Z,7.80
2022-12-16T16:14:14.568Z,7.85
2022-12-16T16:16:06.271Z,7.75
2022-12-16T16:18:06.521Z,8.00
2022-12-16T16:20:05.527Z,8.15
2022-12-16T16:21:55.955Z,11.18
2022-12-16T16:23:47.052Z,12.18
2022-12-16T16:25:37.405Z,11.70
2022-12-16T16:27:30.280Z,10.30
2022-12-16T16:29:20.717Z,21.95
2022-12-16T16:31:11.164Z,16.98
2022-12-16T16:33:02.996Z,12.63
2022-12-16T16:34:53.534Z,10.02
2022-12-16T16:36:43.911Z,9.73
2022-12-16T16:38:34.295Z,16.75
2022-12-16T16:40:36.326Z,17.80
2022-12-16T16:42:27.960Z,17.08
2022-12-16T16:44:20.004Z,12.88
2022-12-16T16:46:12.251Z,12.23
2022-12-16T16:48:04.054Z,21.75
2022-12-16T16:49:58.376Z,11.57
2022-12-16T16:51:48.791Z,8.35
2022-12-16T16:53:39.373Z,7.60
2022-12-16T16:55:34.306Z,8.25
2022-12-16T16:57:27.689Z,9.38
2022-12-16T16:59:18.109Z,10.00
2022-12-16T17:01:09.197Z,8.90
2022-12-16T17:02:59.718Z,8.63
2022-12-16T17:04:51.322Z,8.75
2022-12-16T17:06:41.726Z,9.65
2022-12-16T17:08:32.208Z,9.80
2022-12-16T17:10:23.011Z,9.50
2022-12-16T17:12:13.373Z,8.73
2022-12-16T17:14:03.691Z,8.13
2022-12-16T17:15:55.776Z,9.27
2022-12-16T17:17:46.303Z,8.40
2022-12-16T17:19:36.818Z,8.77
2022-12-16T17:21:28.958Z,8.70
2022-12-16T17:23:34.210Z,10.63
2022-12-16T17:25:25.960Z,9.70
2022-12-16T17:27:16.529Z,11.15
2022-12-16T17:29:06.584Z,12.20
2022-12-16T17:30:57.086Z,14.65
2022-12-16T17:32:47.424Z,17.42
2022-12-16T17:34:37.888Z,13.98
2022-12-16T17:36:32.258Z,11.98
2022-12-16T17:38:22.563Z,11.30
2022-12-16T17:40:12.838Z,11.07
2022-12-16T17:42:03.283Z,10.45
2022-12-16T17:43:49.980Z,10.57
2022-12-16T17:45:48.684Z,10.95
2022-12-16T17:47:39.094Z,9.43
2022-12-16T17:49:29.896Z,9.60
2022-12-16T17:51:20.211Z,9.32
2022-12-16T17:53:14.414Z,9.20
2022-12-16T17:55:04.800Z,9.88
2022-12-16T17:56:55.295Z,9.52
2022-12-16T17:58:49.074Z,9.63
2022-12-16T18:00:39.502Z,10.38
2022-12-16T18:02:32.022Z,11.60
2022-12-16T18:04:23.005Z,12.00
2022-12-16T18:06:14.810Z,11.88
2022-12-16T18:08:05.263Z,13.00
2022-12-16T18:09:57.173Z,13.20
2022-12-16T18:11:47.460Z,12.93
2022-12-16T18:13:37.897Z,12.90
2022-12-16T18:15:28.683Z,13.35
2022-12-16T18:17:18.935Z,13.02
2022-12-16T18:19:09.411Z,12.93
2022-12-16T18:20:59.771Z,12.90
2022-12-16T18:22:50.152Z,13.32
2022-12-16T18:24:46.608Z,13.52
2022-12-16T18:26:40.005Z,12.25
2022-12-16T18:28:30.320Z,12.05
2022-12-16T18:30:20.747Z,12.02
2022-12-16T18:32:11.111Z,10.43
2022-12-16T18:34:01.560Z,10.85
2022-12-16T18:35:52.027Z,10.73
2022-12-16T18:37:42.561Z,11.13
2022-12-16T18:39:33.057Z,10.90
2022-12-16T18:41:24.969Z,10.82
2022-12-16T18:43:17.712Z,10.88
2022-12-16T18:45:07.959Z,11.13
2022-12-16T18:46:58.268Z,10.63
2022-12-16T18:48:48.588Z,10.82
2022-12-16T18:50:38.915Z,11.43
2022-12-16T18:52:29.234Z,11.77
2022-12-16T18:54:19.575Z,13.07
2022-12-16T18:56:18.451Z,14.23
2022-12-16T18:58:21.146Z,13.48
2022-12-16T19:00:22.037Z,13.02
2022-12-16T19:02:12.666Z,12.90
2022-12-16T19:04:03.088Z,12.75
2022-12-16T19:05:53.504Z,13.00
2022-12-16T19:07:44.164Z,12.38
2022-12-16T19:09:34.582Z,11.70
2022-12-16T19:11:24.773Z,11.75
2022-12-16T19:13:15.070Z,11.50
2022-12-16T19:15:05.473Z,12.07
2022-12-16T19:16:56.962Z,14.40
2022-12-16T19:18:55.991Z,13.65
2022-12-16T19:20:46.447Z,11.65
2022-12-16T19:22:37.109Z,13.25
2022-12-16T19:24:27.515Z,13.07
2022-12-16T19:26:23.850Z,12.70
2022-12-16T19:28:14.559Z,12.88
2022-12-16T19:30:04.998Z,25.27
2022-12-16T19:31:56.985Z,14.23
2022-12-16T19:33:47.661Z,17.08
2022-12-16T19:35:37.932Z,14.77
2022-12-16T19:37:36.872Z,13.43
2022-12-16T19:39:27.473Z,12.95
2022-12-16T19:41:17.955Z,13.43
2022-12-16T19:43:08.177Z,12.95
2022-12-16T19:44:58.776Z,12.18
2022-12-16T19:46:49.302Z,12.80
2022-12-16T19:48:40.875Z,12.65
2022-12-16T19:50:31.162Z,11.95
2022-12-16T19:52:21.567Z,12.73
2022-12-16T19:54:11.942Z,12.32
2022-12-16T19:56:02.496Z,13.20
2022-12-16T19:57:58.347Z,12.63
2022-12-16T19:59:48.435Z,13.48
2022-12-16T20:01:38.974Z,12.55
2022-12-16T20:03:29.269Z,17.77
2022-12-16T20:05:20.989Z,16.67
2022-12-16T20:07:11.316Z,14.98
2022-12-16T20:09:01.727Z,16.33
2022-12-16T20:10:54.820Z,13.85
2022-12-16T20:12:48.443Z,13.32
2022-12-16T20:14:38.944Z,14.02
2022-12-16T20:16:30.628Z,14.30
2022-12-16T20:18:23.222Z,14.82
2022-12-16T20:20:14.506Z,14.55
2022-12-16T20:22:10.641Z,15.20
2022-12-16T20:24:02.175Z,13.88
2022-12-16T20:25:56.340Z,15.02
2022-12-16T20:27:47.316Z,15.05
2022-12-16T20:29:37.706Z,14.13
2022-12-16T20:31:28.111Z,13.68
2022-12-16T20:33:18.468Z,14.18
2022-12-16T20:35:14.348Z,14.93
2022-12-16T20:37:05.730Z,14.82
2022-12-16T20:38:56.199Z,14.13
2022-12-16T20:40:46.548Z,14.68
2022-12-16T20:42:36.902Z,15.65
2022-12-16T20:44:27.403Z,15.65
2022-12-16T20:46:17.820Z,15.23
2022-12-16T20:48:08.154Z,15.73
2022-12-16T20:49:59.765Z,16.25
2022-12-16T20:51:50.320Z,15.35
2022-12-16T20:53:42.281Z,16.13
2022-12-16T20:55:33.243Z,16.38
2022-12-16T20:57:23.345Z,16.70
2022-12-16T20:59:13.781Z,17.15
2022-12-16T21:01:04.077Z,16.35
2022-12-16T21:02:54.369Z,16.58
2022-12-16T21:04:46.061Z,16.92
2022-12-16T21:06:36.458Z,16.75
2022-12-16T21:08:26.959Z,16.92
2022-12-16T21:10:18.673Z,18.30
2022-12-16T21:12:08.943Z,18.75
2022-12-16T21:13:59.683Z,18.27
2022-12-16T21:15:50.314Z,18.20
2022-12-16T21:17:41.764Z,18.38
2022-12-16T21:19:35.210Z,17.45
2022-12-16T21:21:25.608Z,17.55
2022-12-16T21:23:18.461Z,17.35
2022-12-16T21:25:09.096Z,16.08
2022-12-16T21:27:00.812Z,16.50
2022-12-16T21:28:51.786Z,15.30
2022-12-16T21:30:42.375Z,16.02
2022-12-16T21:32:32.898Z,16.23
2022-12-16T21:34:23.315Z,15.55
2022-12-16T21:36:10.144Z,16.50
2022-12-16T21:37:56.842Z,16.30
2022-12-16T21:39:47.292Z,16.23
2022-12-16T21:41:37.821Z,16.48
2022-12-16T21:43:29.788Z,16.58
2022-12-16T21:45:21.102Z,16.23
2022-12-16T21:47:11.510Z,15.70
2022-12-16T21:49:01.875Z,15.50
2022-12-16T21:50:52.273Z,15.38
2022-12-16T21:52:43.701Z,15.70
2022-12-16T21:54:34.163Z,15.43
2022-12-16T21:56:25.131Z,15.98
2022-12-16T21:58:15.584Z,15.70
2022-12-16T22:00:07.345Z,15.48
2022-12-16T22:01:57.795Z,15.80
2022-12-16T22:03:52.480Z,15.50
2022-12-16T22:05:43.851Z,15.80
2022-12-16T22:07:34.344Z,14.90
2022-12-16T22:09:24.873Z,15.35
2022-12-16T22:11:15.338Z,14.73
2022-12-16T22:13:05.807Z,15.25
2022-12-16T22:14:56.263Z,14.45
2022-12-16T22:16:48.230Z,15.23
2022-12-16T22:18:38.627Z,14.23
2022-12-16T22:20:29.418Z,14.88
2022-12-16T22:22:19.562Z,14.02
2022-12-16T22:24:10.445Z,14.50
2022-12-16T22:26:06.205Z,15.65
2022-12-16T22:27:56.752Z,15.38
2022-12-16T22:29:47.308Z,15.13
2022-12-16T22:31:37.872Z,15.55
2022-12-16T22:33:30.579Z,15.70
2022-12-16T22:35:21.117Z,15.45
2022-12-16T22:37:11.422Z,15.65
2022-12-16T22:39:01.735Z,15.68
2022-12-16T22:40:52.084Z,15.90
2022-12-16T22:42:42.618Z,14.95
2022-12-16T22:44:33.233Z,14.95
2022-12-16T22:46:29.082Z,15.68
2022-12-16T22:48:19.596Z,15.02
2022-12-16T22:50:11.247Z,14.95
2022-12-16T22:52:01.629Z,14.43
2022-12-16T22:53:51.986Z,15.25
2022-12-16T22:55:42.384Z,14.70
2022-12-16T22:57:32.600Z,14.52
2022-12-16T22:59:23.094Z,15.05
2022-12-16T23:01:13.659Z,13.88
2022-12-16T23:03:04.160Z,13.60
2022-12-16T23:04:54.766Z,13.80
2022-12-16T23:06:48.927Z,14.30
2022-12-16T23:08:39.252Z,13.43
2022-12-16T23:10:29.754Z,14.60
2022-12-16T23:12:20.244Z,15.25
2022-12-16T23:14:10.636Z,14.27
2022-12-16T23:16:01.234Z,14.27
2022-12-16T23:18:03.288Z,14.38
2022-12-16T23:20:05.228Z,14.82
2022-12-16T23:21:56.990Z,14.85
2022-12-16T23:23:47.465Z,14.63
2022-12-16T23:25:37.633Z,15.48
2022-12-16T23:27:28.125Z,15.70
2022-12-16T23:29:18.459Z,15.00
2022-12-16T23:31:12.000Z,16.60
2022-12-16T23:33:02.485Z,16.38
2022-12-16T23:34:53.000Z,16.55
2022-12-16T23:36:43.525Z,16.65
2022-12-16T23:38:35.317Z,16.75
2022-12-16T23:40:26.668Z,17.48
2022-12-16T23:42:19.247Z,16.38